sensor_id;sensor_type;location;lat;lon;timestamp;pressure;altitude;pressure_sealevel;temperature;humidity
51261;BME280;61705;46.228;24.812;2023-01-05T00:02:03;98133.94;;;1.19;100.00
51261;BME280;61705;46.228;24.812;2023-01-05T00:04:29;98134.84;;;1.14;100.00
51261;BME280;61705;46.228;24.812;2023-01-05T00:06:56;98127.03;;;1.14;100.00
51261;BME280;61705;46.228;24.812;2023-01-05T00:09:22;98136.59;;;1.10;100.00
51261;BME280;61705;46.228;24.812;2023-01-05T00:11:49;98127.91;;;1.05;100.00
51261;BME280;61705;46.228;24.812;2023-01-05T00:14:34;98128.78;;;1.00;100.00
51261;BME280;61705;46.228;24.812;2023-01-05T00:17:21;98133.13;;;0.90;100.00
51261;BME280;61705;46.228;24.812;2023-01-05T00:20:10;98141.78;;;1.01;100.00
51261;BME280;61705;46.228;24.812;2023-01-05T00:22:57;98146.13;;;1.04;100.00
51261;BME280;61705;46.228;24.812;2023-01-05T00:25:25;98151.31;;;0.91;100.00
51261;BME280;61705;46.228;24.812;2023-01-05T00:27:51;98144.38;;;0.89;100.00
51261;BME280;61705;46.228;24.812;2023-01-05T00:30:20;98124.44;;;0.86;100.00
51261;BME280;61705;46.228;24.812;2023-01-05T00:32:47;98134.84;;;0.89;100.00
51261;BME280;61705;46.228;24.812;2023-01-05T00:35:14;98135.72;;;0.79;100.00
51261;BME280;61705;46.228;24.812;2023-01-05T00:37:41;98131.38;;;0.78;100.00
51261;BME280;61705;46.228;24.812;2023-01-05T00:40:12;98133.09;;;0.84;100.00
51261;BME280;61705;46.228;24.812;2023-01-05T00:42:39;98130.53;;;0.82;100.00
51261;BME280;61705;46.228;24.812;2023-01-05T00:45:06;98118.38;;;0.77;100.00
51261;BME280;61705;46.228;24.812;2023-01-05T00:47:33;98114.88;;;0.75;100.00
51261;BME280;61705;46.228;24.812;2023-01-05T00:50:00;98124.44;;;0.89;100.00
51261;BME280;61705;46.228;24.812;2023-01-05T00:52:26;98118.38;;;0.83;100.00
51261;BME280;61705;46.228;24.812;2023-01-05T00:54:53;98116.63;;;0.74;100.00
51261;BME280;61705;46.228;24.812;2023-01-05T00:57:19;98115.78;;;0.69;100.00
51261;BME280;61705;46.228;24.812;2023-01-05T00:59:46;98110.56;;;0.78;100.00
51261;BME280;61705;46.228;24.812;2023-01-05T01:02:13;98102.75;;;0.70;100.00
51261;BME280;61705;46.228;24.812;2023-01-05T01:04:40;98101.91;;;0.73;100.00
51261;BME280;61705;46.228;24.812;2023-01-05T01:07:06;98095.81;;;0.74;100.00
51261;BME280;61705;46.228;24.812;2023-01-05T01:09:33;98092.34;;;0.55;100.00
51261;BME280;61705;46.228;24.812;2023-01-05T01:12:00;98090.63;;;0.66;100.00
51261;BME280;61705;46.228;24.812;2023-01-05T01:14:26;98087.16;;;0.63;100.00
51261;BME280;61705;46.228;24.812;2023-01-05T01:16:53;98076.75;;;0.51;100.00
51261;BME280;61705;46.228;24.812;2023-01-05T01:19:21;98069.81;;;0.65;100.00
51261;BME280;61705;46.228;24.812;2023-01-05T01:21:48;98068.97;;;0.58;100.00
51261;BME280;61705;46.228;24.812;2023-01-05T01:24:16;98065.50;;;0.52;100.00
51261;BME280;61705;46.228;24.812;2023-01-05T01:26:43;98064.59;;;0.37;100.00
51261;BME280;61705;46.228;24.812;2023-01-05T01:29:10;98064.59;;;0.31;100.00
51261;BME280;61705;46.228;24.812;2023-01-05T01:31:36;98064.63;;;0.34;100.00
51261;BME280;61705;46.228;24.812;2023-01-05T01:34:03;98064.59;;;0.28;100.00
51261;BME280;61705;46.228;24.812;2023-01-05T01:36:30;98061.09;;;0.23;100.00
51261;BME280;61705;46.228;24.812;2023-01-05T01:38:56;98068.06;;;0.29;100.00
51261;BME280;61705;46.228;24.812;2023-01-05T01:41:23;98066.31;;;0.31;100.00
51261;BME280;61705;46.228;24.812;2023-01-05T01:43:50;98064.59;;;0.25;100.00
51261;BME280;61705;46.228;24.812;2023-01-05T01:46:18;98051.56;;;0.13;100.00
51261;BME280;61705;46.228;24.812;2023-01-05T01:48:46;98059.38;;;0.16;100.00
51261;BME280;61705;46.228;24.812;2023-01-05T01:51:15;98051.56;;;0.13;100.00
51261;BME280;61705;46.228;24.812;2023-01-05T01:53:44;98053.31;;;0.14;100.00
51261;BME280;61705;46.228;24.812;2023-01-05T01:56:13;98043.78;;;0.16;100.00
51261;BME280;61705;46.228;24.812;2023-01-05T01:58:41;98043.78;;;0.14;100.00
51261;BME280;61705;46.228;24.812;2023-01-05T02:01:08;98031.69;;;0.29;100.00
51261;BME280;61705;46.228;24.812;2023-01-05T02:03:35;98023.84;;;0.13;100.00
51261;BME280;61705;46.228;24.812;2023-01-05T02:06:02;98019.50;;;0.02;100.00
51261;BME280;61705;46.228;24.812;2023-01-05T02:08:29;98017.78;;;0.04;100.00
51261;BME280;61705;46.228;24.812;2023-01-05T02:31:45;98004.78;;;-0.01;100.00
51261;BME280;61705;46.228;24.812;2023-01-05T02:39:15;97982.25;;;-0.19;100.00
51261;BME280;61705;46.228;24.812;2023-01-05T02:41:44;97971.00;;;-0.12;100.00
51261;BME280;61705;46.228;24.812;2023-01-05T02:44:14;97983.13;;;-0.17;100.00
51261;BME280;61705;46.228;24.812;2023-01-05T02:46:41;97961.44;;;-0.17;100.00
51261;BME280;61705;46.228;24.812;2023-01-05T02:49:07;97951.94;;;-0.23;100.00
51261;BME280;61705;46.228;24.812;2023-01-05T02:51:38;97945.88;;;-0.19;100.00
51261;BME280;61705;46.228;24.812;2023-01-05T02:54:17;97943.31;;;-0.13;100.00
51261;BME280;61705;46.228;24.812;2023-01-05T02:56:57;97939.84;;;-0.12;100.00
51261;BME280;61705;46.228;24.812;2023-01-05T02:59:26;97942.41;;;-0.18;100.00
51261;BME280;61705;46.228;24.812;2023-01-05T03:01:58;97937.22;;;-0.18;100.00
51261;BME280;61705;46.228;24.812;2023-01-05T03:04:29;97933.78;;;-0.09;100.00
51261;BME280;61705;46.228;24.812;2023-01-05T03:07:03;97938.09;;;-0.01;100.00
51261;BME280;61705;46.228;24.812;2023-01-05T03:09:32;97927.72;;;-0.02;100.00
51261;BME280;61705;46.228;24.812;2023-01-05T03:15:04;97925.13;;;-0.16;100.00
51261;BME280;61705;46.228;24.812;2023-01-05T03:17:33;97932.03;;;-0.04;100.00
51261;BME280;61705;46.228;24.812;2023-01-05T03:20:01;97929.47;;;-0.03;100.00
51261;BME280;61705;46.228;24.812;2023-01-05T03:22:30;97925.13;;;0.07;100.00
51261;BME280;61705;46.228;24.812;2023-01-05T03:25:17;97932.91;;;-0.04;100.00
51261;BME280;61705;46.228;24.812;2023-01-05T03:28:05;97914.72;;;0.06;100.00
51261;BME280;61705;46.228;24.812;2023-01-05T03:30:56;97906.06;;;0.07;100.00
51261;BME280;61705;46.228;24.812;2023-01-05T03:36:28;97892.22;;;0.12;100.00
51261;BME280;61705;46.228;24.812;2023-01-05T03:38:56;97885.28;;;0.10;100.00
51261;BME280;61705;46.228;24.812;2023-01-05T03:41:24;97886.16;;;0.15;100.00
51261;BME280;61705;46.228;24.812;2023-01-05T03:43:52;97881.81;;;0.09;100.00
51261;BME280;61705;46.228;24.812;2023-01-05T03:46:19;97891.34;;;0.03;100.00
51261;BME280;61705;46.228;24.812;2023-01-05T03:48:47;97891.38;;;0.07;100.00
51261;BME280;61705;46.228;24.812;2023-01-05T03:51:14;97890.47;;;0.05;100.00
51261;BME280;61705;46.228;24.812;2023-01-05T03:53:41;97880.09;;;0.01;100.00
51261;BME280;61705;46.228;24.812;2023-01-05T03:56:08;97880.97;;;0.07;100.00
51261;BME280;61705;46.228;24.812;2023-01-05T03:58:34;97875.78;;;0.04;100.00
51261;BME280;61705;46.228;24.812;2023-01-05T04:01:01;97880.94;;;0.03;100.00
51261;BME280;61705;46.228;24.812;2023-01-05T04:03:28;97876.63;;;0.03;100.00
51261;BME280;61705;46.228;24.812;2023-01-05T04:05:57;97858.47;;;0.00;100.00
51261;BME280;61705;46.228;24.812;2023-01-05T04:08:24;97869.69;;;0.07;100.00
51261;BME280;61705;46.228;24.812;2023-01-05T04:10:51;97865.38;;;0.09;100.00
51261;BME280;61705;46.228;24.812;2023-01-05T04:13:18;97854.94;;;0.19;100.00
51261;BME280;61705;46.228;24.812;2023-01-05T04:15:45;97841.97;;;0.12;100.00
51261;BME280;61705;46.228;24.812;2023-01-05T04:18:12;97835.91;;;0.10;100.00
51261;BME280;61705;46.228;24.812;2023-01-05T04:20:38;97835.03;;;0.15;100.00
51261;BME280;61705;46.228;24.812;2023-01-05T04:23:05;97827.25;;;0.18;100.00
51261;BME280;61705;46.228;24.812;2023-01-05T04:25:31;97815.13;;;0.13;100.00
51261;BME280;61705;46.228;24.812;2023-01-05T04:27:58;97806.47;;;0.15;100.00
51261;BME280;61705;46.228;24.812;2023-01-05T04:30:25;97802.16;;;0.11;100.00
51261;BME280;61705;46.228;24.812;2023-01-05T04:32:54;97798.66;;;0.15;100.00
51261;BME280;61705;46.228;24.812;2023-01-05T04:35:21;97802.16;;;0.17;100.00
51261;BME280;61705;46.228;24.812;2023-01-05T04:37:47;97802.13;;;0.07;100.00
51261;BME280;61705;46.228;24.812;2023-01-05T04:40:14;97797.81;;;0.12;100.00
51261;BME280;61705;46.228;24.812;2023-01-05T04:42:40;97796.09;;;0.03;100.00
51261;BME280;61705;46.228;24.812;2023-01-05T04:45:07;97785.69;;;0.03;100.00
51261;BME280;61705;46.228;24.812;2023-01-05T04:47:34;97769.25;;;-0.01;100.00
51261;BME280;61705;46.228;24.812;2023-01-05T04:50:01;97758.88;;;0.07;100.00
51261;BME280;61705;46.228;24.812;2023-01-05T04:52:30;97768.41;;;-0.04;100.00
51261;BME280;61705;46.228;24.812;2023-01-05T04:54:57;97771.88;;;-0.05;100.00
51261;BME280;61705;46.228;24.812;2023-01-05T04:57:26;97772.75;;;-0.06;100.00
51261;BME280;61705;46.228;24.812;2023-01-05T04:59:52;97766.69;;;-0.17;100.00
51261;BME280;61705;46.228;24.812;2023-01-05T05:02:19;97764.06;;;-0.04;100.00
51261;BME280;61705;46.228;24.812;2023-01-05T05:04:46;97762.34;;;0.00;100.00
51261;BME280;61705;46.228;24.812;2023-01-05T05:07:13;97757.16;;;-0.11;100.00
51261;BME280;61705;46.228;24.812;2023-01-05T05:09:39;97756.28;;;-0.11;100.00
51261;BME280;61705;46.228;24.812;2023-01-05T05:12:06;97758.03;;;-0.06;100.00
51261;BME280;61705;46.228;24.812;2023-01-05T05:14:32;97743.28;;;-0.02;100.00
51261;BME280;61705;46.228;24.812;2023-01-05T05:16:59;97733.75;;;0.08;100.00
51261;BME280;61705;46.228;24.812;2023-01-05T05:19:25;97739.78;;;0.11;100.00
51261;BME280;61705;46.228;24.812;2023-01-05T05:21:52;97745.88;;;0.01;100.00
51261;BME280;61705;46.228;24.812;2023-01-05T05:24:18;97740.69;;;-0.04;100.00
51261;BME280;61705;46.228;24.812;2023-01-05T05:26:45;97738.97;;;-0.03;100.00
51261;BME280;61705;46.228;24.812;2023-01-05T05:29:11;97737.22;;;-0.07;100.00
51261;BME280;61705;46.228;24.812;2023-01-05T05:31:38;97752.84;;;-0.12;100.00
51261;BME280;61705;46.228;24.812;2023-01-05T05:34:05;97733.78;;;-0.09;100.00
51261;BME280;61705;46.228;24.812;2023-01-05T05:36:31;97737.16;;;0.19;100.00
51261;BME280;61705;46.228;24.812;2023-01-05T05:38:58;97730.28;;;0.03;100.00
51261;BME280;61705;46.228;24.812;2023-01-05T05:41:24;97727.69;;;0.03;100.00
51261;BME280;61705;46.228;24.812;2023-01-05T05:43:51;97738.94;;;0.11;100.00
51261;BME280;61705;46.228;24.812;2023-01-05T05:46:17;97727.69;;;0.06;100.00
51261;BME280;61705;46.228;24.812;2023-01-05T05:48:44;97721.66;;;0.04;100.00
51261;BME280;61705;46.228;24.812;2023-01-05T05:51:15;97716.50;;;-0.10;100.00
51261;BME280;61705;46.228;24.812;2023-01-05T05:53:43;97711.28;;;-0.15;100.00
51261;BME280;61705;46.228;24.812;2023-01-05T05:56:10;97706.13;;;-0.16;100.00
51261;BME280;61705;46.228;24.812;2023-01-05T05:58:36;97701.78;;;-0.22;100.00
51261;BME280;61705;46.228;24.812;2023-01-05T06:01:03;97696.63;;;-0.23;100.00
51261;BME280;61705;46.228;24.812;2023-01-05T06:03:30;97705.25;;;-0.17;100.00
51261;BME280;61705;46.228;24.812;2023-01-05T06:05:56;97712.19;;;-0.23;100.00
51261;BME280;61705;46.228;24.812;2023-01-05T06:08:23;97707.84;;;-0.20;100.00
51261;BME280;61705;46.228;24.812;2023-01-05T06:10:50;97712.13;;;-0.11;100.00
51261;BME280;61705;46.228;24.812;2023-01-05T06:13:17;97710.44;;;-0.25;100.00
51261;BME280;61705;46.228;24.812;2023-01-05T06:15:43;97713.06;;;-0.23;100.00
51261;BME280;61705;46.228;24.812;2023-01-05T06:18:10;97707.84;;;-0.17;100.00
51261;BME280;61705;46.228;24.812;2023-01-05T06:20:36;97700.91;;;-0.12;100.00
51261;BME280;61705;46.228;24.812;2023-01-05T06:23:03;97699.19;;;-0.16;100.00
51261;BME280;61705;46.228;24.812;2023-01-05T06:25:29;97706.09;;;-0.15;100.00
51261;BME280;61705;46.228;24.812;2023-01-05T06:27:56;97701.78;;;-0.16;100.00
51261;BME280;61705;46.228;24.812;2023-01-05T06:30:23;97696.56;;;-0.13;100.00
51261;BME280;61705;46.228;24.812;2023-01-05T06:32:49;97689.66;;;-0.15;100.00
51261;BME280;61705;46.228;24.812;2023-01-05T06:35:16;97694.81;;;-0.05;100.00
51261;BME280;61705;46.228;24.812;2023-01-05T06:37:42;97700.81;;;0.10;100.00
51261;BME280;61705;46.228;24.812;2023-01-05T06:40:09;97699.94;;;0.15;100.00
51261;BME280;61705;46.228;24.812;2023-01-05T06:42:37;97696.41;;;0.32;100.00
51261;BME280;61705;46.228;24.812;2023-01-05T06:45:04;97688.66;;;0.21;100.00
51261;BME280;61705;46.228;24.812;2023-01-05T06:47:31;97688.66;;;0.19;100.00
51261;BME280;61705;46.228;24.812;2023-01-05T06:49:58;97686.97;;;0.09;100.00
51261;BME280;61705;46.228;24.812;2023-01-05T06:55:16;97683.47;;;0.13;100.00
51261;BME280;61705;46.228;24.812;2023-01-05T06:57:47;97682.59;;;0.19;100.00
51261;BME280;61705;46.228;24.812;2023-01-05T07:00:14;97679.94;;;0.36;100.00
51261;BME280;61705;46.228;24.812;2023-01-05T07:02:46;97688.59;;;0.38;100.00
51261;BME280;61705;46.228;24.812;2023-01-05T07:05:27;97688.56;;;0.39;100.00
51261;BME280;61705;46.228;24.812;2023-01-05T07:07:55;97686.81;;;0.40;100.00
51261;BME280;61705;46.228;24.812;2023-01-05T07:10:21;97690.28;;;0.43;100.00
51261;BME280;61705;46.228;24.812;2023-01-05T07:12:48;97685.03;;;0.50;100.00
51261;BME280;61705;46.228;24.812;2023-01-05T07:15:14;97678.03;;;0.64;100.00
51261;BME280;61705;46.228;24.812;2023-01-05T07:17:41;97675.41;;;0.68;100.00
51261;BME280;61705;46.228;24.812;2023-01-05T07:20:07;97671.00;;;0.75;100.00
51261;BME280;61705;46.228;24.812;2023-01-05T07:22:34;97669.22;;;0.82;100.00
51261;BME280;61705;46.228;24.812;2023-01-05T07:25:01;97658.78;;;0.88;100.00
51261;BME280;61705;46.228;24.812;2023-01-05T07:27:27;97654.44;;;0.90;99.78
51261;BME280;61705;46.228;24.812;2023-01-05T07:29:54;97651.72;;;1.07;99.80
51261;BME280;61705;46.228;24.812;2023-01-05T07:32:20;97655.97;;;1.17;99.22
51261;BME280;61705;46.228;24.812;2023-01-05T07:34:47;97646.47;;;1.08;98.67
51261;BME280;61705;46.228;24.812;2023-01-05T07:37:21;97644.63;;;1.23;98.33
51261;BME280;61705;46.228;24.812;2023-01-05T07:39:50;97645.56;;;1.15;97.70
51261;BME280;61705;46.228;24.812;2023-01-05T07:42:18;97648.09;;;1.22;97.67
51261;BME280;61705;46.228;24.812;2023-01-05T07:44:44;97647.25;;;1.19;97.29
51261;BME280;61705;46.228;24.812;2023-01-05T07:47:11;97644.59;;;1.27;97.13
51261;BME280;61705;46.228;24.812;2023-01-05T07:49:38;97639.50;;;1.12;97.02
51261;BME280;61705;46.228;24.812;2023-01-05T07:52:04;97628.97;;;1.26;97.19
51261;BME280;61705;46.228;24.812;2023-01-05T07:54:31;97630.59;;;1.40;97.26
51261;BME280;61705;46.228;24.812;2023-01-05T07:56:58;97629.69;;;1.40;96.98
51261;BME280;61705;46.228;24.812;2023-01-05T07:59:24;97615.75;;;1.49;96.84
51261;BME280;61705;46.228;24.812;2023-01-05T08:01:53;97619.06;;;1.63;96.50
51261;BME280;61705;46.228;24.812;2023-01-05T08:04:20;97624.25;;;1.63;96.24
51261;BME280;61705;46.228;24.812;2023-01-05T08:06:47;97612.88;;;1.73;96.21
51261;BME280;61705;46.228;24.812;2023-01-05T08:09:15;97610.28;;;1.72;95.95
51261;BME280;61705;46.228;24.812;2023-01-05T08:12:00;97606.72;;;1.79;95.93
51261;BME280;61705;46.228;24.812;2023-01-05T08:14:26;97610.84;;;1.97;96.20
51261;BME280;61705;46.228;24.812;2023-01-05T08:16:53;97601.31;;;1.94;95.73
51261;BME280;61705;46.228;24.812;2023-01-05T08:19:19;97601.22;;;2.03;95.65
51261;BME280;61705;46.228;24.812;2023-01-05T08:21:46;97600.25;;;2.10;95.69
51261;BME280;61705;46.228;24.812;2023-01-05T08:24:12;97593.34;;;2.06;95.50
51261;BME280;61705;46.228;24.812;2023-01-05T08:26:39;97588.06;;;2.11;95.34
51261;BME280;61705;46.228;24.812;2023-01-05T08:29:06;97593.25;;;2.14;95.45
51261;BME280;61705;46.228;24.812;2023-01-05T08:31:32;97594.03;;;2.21;95.42
51261;BME280;61705;46.228;24.812;2023-01-05T08:34:03;97583.72;;;2.13;95.44
51261;BME280;61705;46.228;24.812;2023-01-05T08:36:33;97580.97;;;2.24;95.73
51261;BME280;61705;46.228;24.812;2023-01-05T08:39:00;97573.88;;;2.32;95.40
51261;BME280;61705;46.228;24.812;2023-01-05T08:41:27;97582.56;;;2.32;95.35
51261;BME280;61705;46.228;24.812;2023-01-05T08:43:59;97562.47;;;2.41;95.25
51261;BME280;61705;46.228;24.812;2023-01-05T08:46:27;97555.25;;;2.58;95.20
51261;BME280;61705;46.228;24.812;2023-01-05T08:48:56;97548.25;;;2.58;94.30
51261;BME280;61705;46.228;24.812;2023-01-05T08:51:23;97558.41;;;2.77;93.70
51261;BME280;61705;46.228;24.812;2023-01-05T08:53:49;97534.50;;;3.01;93.80
51261;BME280;61705;46.228;24.812;2023-01-05T08:56:16;97541.44;;;3.02;93.28
51261;BME280;61705;46.228;24.812;2023-01-05T08:58:42;97539.53;;;3.11;93.06
51261;BME280;61705;46.228;24.812;2023-01-05T09:01:10;97526.16;;;3.29;92.80
51261;BME280;61705;46.228;24.812;2023-01-05T09:03:37;97526.75;;;3.43;92.20
51261;BME280;61705;46.228;24.812;2023-01-05T09:06:04;97528.91;;;3.66;92.11
51261;BME280;61705;46.228;24.812;2023-01-05T09:08:32;97513.00;;;3.77;91.95
51261;BME280;61705;46.228;24.812;2023-01-05T09:11:06;97513.81;;;3.80;91.79
51261;BME280;61705;46.228;24.812;2023-01-05T09:13:33;97504.16;;;3.83;91.65
51261;BME280;61705;46.228;24.812;2023-01-05T09:16:06;97514.59;;;3.84;91.53
51261;BME280;61705;46.228;24.812;2023-01-05T09:18:34;97512.34;;;3.66;91.51
51261;BME280;61705;46.228;24.812;2023-01-05T09:21:01;97514.53;;;3.45;92.07
51261;BME280;61705;46.228;24.812;2023-01-05T09:23:28;97503.81;;;3.59;92.81
51261;BME280;61705;46.228;24.812;2023-01-05T09:25:55;97496.66;;;3.67;92.85
51261;BME280;61705;46.228;24.812;2023-01-05T09:28:21;97495.56;;;3.77;92.89
51261;BME280;61705;46.228;24.812;2023-01-05T09:30:48;97496.25;;;3.87;92.87
51261;BME280;61705;46.228;24.812;2023-01-05T09:33:16;97497.09;;;3.88;92.60
51261;BME280;61705;46.228;24.812;2023-01-05T09:35:43;97484.69;;;3.97;93.06
51261;BME280;61705;46.228;24.812;2023-01-05T09:38:09;97480.19;;;4.02;93.28
51261;BME280;61705;46.228;24.812;2023-01-05T09:40:40;97476.47;;;4.13;93.36
51261;BME280;61705;46.228;24.812;2023-01-05T09:43:10;97466.41;;;4.33;93.72
51261;BME280;61705;46.228;24.812;2023-01-05T09:45:39;97451.06;;;4.55;93.14
51261;BME280;61705;46.228;24.812;2023-01-05T09:48:06;97449.81;;;4.70;92.68
51261;BME280;61705;46.228;24.812;2023-01-05T09:50:34;97434.44;;;4.90;92.09
51261;BME280;61705;46.228;24.812;2023-01-05T09:53:01;97435.59;;;5.11;91.61
51261;BME280;61705;46.228;24.812;2023-01-05T09:55:28;97426.91;;;5.09;91.46
51261;BME280;61705;46.228;24.812;2023-01-05T09:58:01;97426.59;;;5.21;91.70
51261;BME280;61705;46.228;24.812;2023-01-05T10:00:30;97422.81;;;5.32;91.42
51261;BME280;61705;46.228;24.812;2023-01-05T10:02:59;97405.09;;;5.40;91.32
51261;BME280;61705;46.228;24.812;2023-01-05T10:05:27;97393.50;;;5.49;91.35
51261;BME280;61705;46.228;24.812;2023-01-05T10:08:02;97388.88;;;5.57;90.95
51261;BME280;61705;46.228;24.812;2023-01-05T10:10:44;97395.53;;;5.67;90.75
51261;BME280;61705;46.228;24.812;2023-01-05T10:13:18;97387.47;;;5.75;90.39
51261;BME280;61705;46.228;24.812;2023-01-05T10:15:47;97368.78;;;5.85;89.88
51261;BME280;61705;46.228;24.812;2023-01-05T10:18:18;97350.31;;;5.88;89.81
51261;BME280;61705;46.228;24.812;2023-01-05T10:23:24;97363.25;;;5.94;89.77
51261;BME280;61705;46.228;24.812;2023-01-05T10:31:01;97349.28;;;6.21;88.46
51261;BME280;61705;46.228;24.812;2023-01-05T13:18:15;97095.91;;;8.46;73.01
51261;BME280;61705;46.228;24.812;2023-01-05T13:20:44;97076.03;;;8.58;72.03
51261;BME280;61705;46.228;24.812;2023-01-05T13:23:17;97085.59;;;8.41;72.71
51261;BME280;61705;46.228;24.812;2023-01-05T13:26:19;97090.69;;;8.25;73.66
51261;BME280;61705;46.228;24.812;2023-01-05T13:28:37;97102.50;;;8.36;73.14
51261;BME280;61705;46.228;24.812;2023-01-05T13:33:38;97095.19;;;8.42;72.80
51261;BME280;61705;46.228;24.812;2023-01-05T13:51:59;97168.47;;;8.12;74.74
51261;BME280;61705;46.228;24.812;2023-01-05T13:54:32;97177.63;;;8.03;76.09
51261;BME280;61705;46.228;24.812;2023-01-05T13:57:16;97188.16;;;8.03;76.43
51261;BME280;61705;46.228;24.812;2023-01-05T13:59:47;97196.91;;;8.04;76.85
51261;BME280;61705;46.228;24.812;2023-01-05T14:02:33;97201.72;;;7.94;77.85
51261;BME280;61705;46.228;24.812;2023-01-05T14:05:05;97209.22;;;7.83;78.66
51261;BME280;61705;46.228;24.812;2023-01-05T14:07:33;97208.06;;;7.68;79.35
51261;BME280;61705;46.228;24.812;2023-01-05T14:10:04;97219.69;;;7.63;80.16
51261;BME280;61705;46.228;24.812;2023-01-05T14:12:42;97226.09;;;7.55;80.84
51261;BME280;61705;46.228;24.812;2023-01-05T14:17:58;97220.94;;;7.32;82.86
51261;BME280;61705;46.228;24.812;2023-01-05T14:20:32;97222.22;;;7.22;83.73
51261;BME280;61705;46.228;24.812;2023-01-05T14:23:01;97220.47;;;7.21;84.20
51261;BME280;61705;46.228;24.812;2023-01-05T14:28:20;97222.38;;;7.17;84.99
51261;BME280;61705;46.228;24.812;2023-01-05T14:30:48;97217.84;;;7.21;84.62
51261;BME280;61705;46.228;24.812;2023-01-05T14:33:16;97224.66;;;7.04;85.17
51261;BME280;61705;46.228;24.812;2023-01-05T14:35:43;97227.00;;;7.10;85.79
51261;BME280;61705;46.228;24.812;2023-01-05T14:40:41;97223.66;;;7.07;86.15
51261;BME280;61705;46.228;24.812;2023-01-05T14:43:22;97223.03;;;7.00;86.49
51261;BME280;61705;46.228;24.812;2023-01-05T14:45:58;97230.91;;;7.00;86.95
51261;BME280;61705;46.228;24.812;2023-01-05T14:48:33;97232.88;;;6.95;87.32
51261;BME280;61705;46.228;24.812;2023-01-05T14:51:07;97238.16;;;6.94;87.64
51261;BME280;61705;46.228;24.812;2023-01-05T14:53:40;97213.75;;;6.92;88.30
51261;BME280;61705;46.228;24.812;2023-01-05T15:03:35;97188.63;;;6.84;89.16
51261;BME280;61705;46.228;24.812;2023-01-05T15:11:17;97177.28;;;6.84;89.62
51261;BME280;61705;46.228;24.812;2023-01-05T15:13:55;97175.50;;;6.84;89.52
51261;BME280;61705;46.228;24.812;2023-01-05T15:32:47;97175.94;;;6.74;90.32
51261;BME280;61705;46.228;24.812;2023-01-05T15:35:16;97173.41;;;6.71;90.43
51261;BME280;61705;46.228;24.812;2023-01-05T15:37:43;97168.28;;;6.68;90.71
51261;BME280;61705;46.228;24.812;2023-01-05T15:42:49;97177.03;;;6.90;89.62
51261;BME280;61705;46.228;24.812;2023-01-05T15:45:23;97170.28;;;6.83;89.63
51261;BME280;61705;46.228;24.812;2023-01-05T15:47:51;97170.41;;;6.80;89.74
51261;BME280;61705;46.228;24.812;2023-01-05T15:50:19;97175.84;;;6.75;89.89
51261;BME280;61705;46.228;24.812;2023-01-05T15:52:51;97177.41;;;6.81;89.78
51261;BME280;61705;46.228;24.812;2023-01-05T15:55:18;97178.47;;;6.75;89.76
51261;BME280;61705;46.228;24.812;2023-01-05T16:00:28;97169.78;;;6.73;90.15
51261;BME280;61705;46.228;24.812;2023-01-05T16:02:55;97173.47;;;6.69;90.23
51261;BME280;61705;46.228;24.812;2023-01-05T16:05:23;97172.41;;;6.73;90.03
51261;BME280;61705;46.228;24.812;2023-01-05T16:07:52;97170.72;;;6.72;89.90
51261;BME280;61705;46.228;24.812;2023-01-05T16:10:25;97161.06;;;6.73;90.00
51261;BME280;61705;46.228;24.812;2023-01-05T16:12:56;97163.13;;;6.64;90.17
51261;BME280;61705;46.228;24.812;2023-01-05T16:15:24;97168.31;;;6.66;90.32
51261;BME280;61705;46.228;24.812;2023-01-05T16:17:52;97169.16;;;6.67;90.18
51261;BME280;61705;46.228;24.812;2023-01-05T16:20:21;97177.03;;;6.67;90.19
51261;BME280;61705;46.228;24.812;2023-01-05T16:22:51;97176.19;;;6.66;90.23
51261;BME280;61705;46.228;24.812;2023-01-05T16:25:27;97183.97;;;6.69;90.14
51261;BME280;61705;46.228;24.812;2023-01-05T16:27:55;97184.03;;;6.68;90.07
51261;BME280;61705;46.228;24.812;2023-01-05T16:30:37;97199.09;;;6.62;90.22
51261;BME280;61705;46.228;24.812;2023-01-05T16:35:38;97205.16;;;6.64;90.30
51261;BME280;61705;46.228;24.812;2023-01-05T16:40:35;97206.19;;;6.60;90.50
51261;BME280;61705;46.228;24.812;2023-01-05T16:43:10;97205.56;;;6.54;90.77
51261;BME280;61705;46.228;24.812;2023-01-05T16:45:41;97194.31;;;6.50;91.23
51261;BME280;61705;46.228;24.812;2023-01-05T16:51:05;97196.44;;;6.39;91.85
51261;BME280;61705;46.228;24.812;2023-01-05T16:53:33;97213.09;;;6.39;92.04
51261;BME280;61705;46.228;24.812;2023-01-05T16:56:01;97215.16;;;6.30;92.40
51261;BME280;61705;46.228;24.812;2023-01-05T17:01:16;97209.28;;;6.23;92.72
51261;BME280;61705;46.228;24.812;2023-01-05T17:03:41;97213.72;;;6.21;92.99
51261;BME280;61705;46.228;24.812;2023-01-05T17:08:46;97223.47;;;6.17;93.24
51261;BME280;61705;46.228;24.812;2023-01-05T17:11:13;97224.50;;;6.13;93.56
51261;BME280;61705;46.228;24.812;2023-01-05T17:13:41;97220.81;;;6.19;93.52
51261;BME280;61705;46.228;24.812;2023-01-05T17:16:09;97220.00;;;6.17;93.59
51261;BME280;61705;46.228;24.812;2023-01-05T17:18:40;97216.41;;;6.20;93.49
51261;BME280;61705;46.228;24.812;2023-01-05T17:21:06;97220.84;;;6.17;93.59
51261;BME280;61705;46.228;24.812;2023-01-05T17:23:38;97225.25;;;6.17;93.87
51261;BME280;61705;46.228;24.812;2023-01-05T17:26:08;97238.53;;;6.12;94.33
51261;BME280;61705;46.228;24.812;2023-01-05T17:28:36;97237.78;;;6.09;94.57
51261;BME280;61705;46.228;24.812;2023-01-05T17:31:05;97232.63;;;6.06;94.72
51261;BME280;61705;46.228;24.812;2023-01-05T17:33:31;97233.59;;;6.03;94.87
51261;BME280;61705;46.228;24.812;2023-01-05T17:35:58;97242.31;;;6.04;94.77
51261;BME280;61705;46.228;24.812;2023-01-05T17:38:26;97242.31;;;6.04;94.94
51261;BME280;61705;46.228;24.812;2023-01-05T17:40:52;97243.88;;;6.09;94.69
51261;BME280;61705;46.228;24.812;2023-01-05T17:43:22;97241.63;;;6.24;94.09